Tuscarora, Maryland
Current Conditions -  °F | °C
As of 9:45 AM on Monday 24 Nov 2014 (Local Time) from KFDK Reporting Station
Clear Clear  
Wind Chill: 70°   Ceiling: Unl
Heat Index: 70°   Visibility: 10mi
Dew Point: 55°   Wind: 20mph
Humidity: 60%   Direction: 210°SSW
Pressure: 29.69"   Gusts: 29mph
Location:  39.26°N, 77.47°W
Report Text: KFDK 241445Z 21017G25KT 10SM SKC 21/13 A2969
Loading
Personal Weather Stations






























Interactive Weather Map New forecast layout! Learn more

10-Day Weather Forecast

Advertisements
Track Severe Weather on mobile